createdAt,value
2022-12-24T00:00:48.317Z,28.50
2022-12-24T00:03:04.755Z,27.00
2022-12-24T00:05:18.298Z,27.30
2022-12-24T00:07:31.641Z,41.80
2022-12-24T00:09:45.007Z,23.40
2022-12-24T00:11:58.322Z,24.30
2022-12-24T00:14:11.656Z,29.40
2022-12-24T00:16:24.907Z,21.00
2022-12-24T00:18:43.529Z,19.60
2022-12-24T00:20:59.832Z,6.50
2022-12-24T00:23:13.648Z,10.20
2022-12-24T00:25:27.047Z,8.40
2022-12-24T00:27:40.502Z,4.90
2022-12-24T00:29:54.631Z,7.40
2022-12-24T00:32:11.243Z,5.50
2022-12-24T00:34:26.334Z,4.20
2022-12-24T00:36:39.563Z,10.30
2022-12-24T00:38:53.047Z,10.40
2022-12-24T00:41:25.652Z,19.00
2022-12-24T00:43:39.244Z,22.00
2022-12-24T00:45:53.565Z,13.80
2022-12-24T00:48:06.928Z,11.30
2022-12-24T00:50:20.288Z,4.30
2022-12-24T00:52:50.344Z,11.90
2022-12-24T00:55:04.300Z,11.30
2022-12-24T00:57:17.668Z,14.80
2022-12-24T00:59:31.172Z,13.80
2022-12-24T01:01:44.848Z,7.30
2022-12-24T01:04:19.555Z,8.30
2022-12-24T01:06:32.758Z,10.70
2022-12-24T01:08:46.425Z,7.70
2022-12-24T01:10:59.779Z,17.30
2022-12-24T01:13:12.994Z,7.70
2022-12-24T01:15:27.271Z,6.60
2022-12-24T01:17:41.327Z,6.20
2022-12-24T01:19:55.755Z,4.10
2022-12-24T01:22:09.050Z,6.10
2022-12-24T01:24:22.706Z,21.20
2022-12-24T01:26:36.048Z,5.30
2022-12-24T01:28:49.469Z,3.70
2022-12-24T01:31:02.883Z,2.90
2022-12-24T01:33:16.309Z,2.90
2022-12-24T01:35:29.689Z,1.80
2022-12-24T01:37:43.236Z,2.10
2022-12-24T01:40:17.905Z,2.80
2022-12-24T01:42:47.595Z,1.50
2022-12-24T01:45:14.570Z,21.00
2022-12-24T01:47:30.954Z,66.90
2022-12-24T01:49:46.552Z,22.50
2022-12-24T01:52:04.662Z,24.50
2022-12-24T01:54:21.673Z,14.90
2022-12-24T01:56:36.585Z,7.00
2022-12-24T01:58:55.669Z,7.00
2022-12-24T02:01:09.200Z,7.70
2022-12-24T02:03:23.066Z,7.10
2022-12-24T02:05:40.254Z,5.50
2022-12-24T02:07:54.102Z,4.60
2022-12-24T02:10:08.704Z,42.60
2022-12-24T02:12:22.628Z,15.80
2022-12-24T02:14:37.517Z,6.20
2022-12-24T02:17:00.934Z,8.50
2022-12-24T02:19:45.990Z,7.30
2022-12-24T02:22:06.475Z,5.20
2022-12-24T02:24:50.182Z,3.60
2022-12-24T02:27:22.853Z,9.90
2022-12-24T02:30:02.308Z,36.00
2022-12-24T02:32:18.715Z,27.30
2022-12-24T02:34:37.801Z,21.30
2022-12-24T02:36:58.685Z,14.80
2022-12-24T02:39:16.381Z,5.50
2022-12-24T02:41:54.154Z,6.90
2022-12-24T02:44:07.846Z,19.50
2022-12-24T02:46:24.603Z,18.40
2022-12-24T02:48:39.723Z,15.60
2022-12-24T02:51:06.391Z,10.30
2022-12-24T02:53:19.696Z,2.70
2022-12-24T02:55:47.089Z,2.80
2022-12-24T02:58:23.717Z,4.10
2022-12-24T03:00:48.169Z,2.40
2022-12-24T03:03:16.025Z,2.50
2022-12-24T03:05:40.364Z,4.80
2022-12-24T03:08:03.031Z,2.00
2022-12-24T03:10:23.832Z,2.80
2022-12-24T03:12:43.205Z,7.50
2022-12-24T03:14:57.021Z,2.20
2022-12-24T03:17:11.537Z,2.30
2022-12-24T03:19:28.287Z,2.70
2022-12-24T03:21:44.038Z,3.00
2022-12-24T03:23:57.749Z,4.00
2022-12-24T03:26:14.472Z,3.50
2022-12-24T03:28:32.183Z,15.60
2022-12-24T03:30:49.577Z,35.00
2022-12-24T03:33:02.989Z,34.60
2022-12-24T03:35:17.119Z,28.40
2022-12-24T03:37:30.569Z,45.80
2022-12-24T03:39:44.219Z,28.80
2022-12-24T03:41:57.633Z,9.40
2022-12-24T03:44:12.005Z,11.20
2022-12-24T03:46:25.495Z,18.30
2022-12-24T03:48:39.446Z,14.40
2022-12-24T03:50:53.015Z,14.70
2022-12-24T03:53:06.466Z,15.10
2022-12-24T03:55:20.193Z,16.70
2022-12-24T03:57:34.642Z,20.10
2022-12-24T03:59:48.083Z,20.70
2022-12-24T04:02:01.712Z,24.00
2022-12-24T04:04:15.932Z,24.10
2022-12-24T04:06:29.463Z,21.20
2022-12-24T04:08:43.040Z,29.00
2022-12-24T04:10:56.534Z,16.70
2022-12-24T04:13:09.867Z,18.30
2022-12-24T04:15:23.603Z,22.40
2022-12-24T04:17:37.304Z,29.30
2022-12-24T04:19:50.656Z,25.00
2022-12-24T04:22:04.372Z,25.70
2022-12-24T04:24:17.811Z,27.80
2022-12-24T04:26:31.390Z,26.70
2022-12-24T04:28:47.025Z,11.20
2022-12-24T04:31:05.179Z,23.80
2022-12-24T04:33:18.609Z,20.20
2022-12-24T04:35:32.020Z,19.20
2022-12-24T04:37:45.491Z,20.00
2022-12-24T04:39:59.126Z,19.80
2022-12-24T04:42:12.655Z,28.50
2022-12-24T04:44:27.094Z,30.90
2022-12-24T04:46:40.525Z,15.80
2022-12-24T04:48:54.873Z,13.60
2022-12-24T04:51:12.467Z,19.90
2022-12-24T04:53:25.775Z,14.30
2022-12-24T04:55:39.129Z,18.80
2022-12-24T04:57:53.316Z,19.70
2022-12-24T05:00:07.639Z,18.90
2022-12-24T05:02:21.201Z,15.20
2022-12-24T05:04:35.041Z,12.20
2022-12-24T05:06:48.406Z,16.40
2022-12-24T05:09:03.061Z,15.30
2022-12-24T05:11:17.089Z,11.30
2022-12-24T05:13:37.910Z,9.10
2022-12-24T05:15:58.251Z,7.40
2022-12-24T05:18:11.693Z,11.70
2022-12-24T05:20:25.063Z,6.80
2022-12-24T05:22:54.697Z,10.90
2022-12-24T05:25:24.595Z,5.20
2022-12-24T05:27:38.072Z,4.20
2022-12-24T05:29:51.312Z,12.20
2022-12-24T05:32:04.488Z,7.80
2022-12-24T05:34:18.757Z,7.20
2022-12-24T05:36:32.089Z,14.60
2022-12-24T05:38:45.469Z,11.70
2022-12-24T05:40:58.697Z,10.10
2022-12-24T05:43:12.069Z,5.10
2022-12-24T05:45:25.313Z,8.90
2022-12-24T05:47:43.256Z,12.40
2022-12-24T05:49:57.042Z,9.30
2022-12-24T05:52:10.566Z,7.60
2022-12-24T05:54:23.730Z,8.90
2022-12-24T05:56:36.964Z,10.90
2022-12-24T05:58:50.479Z,5.10
2022-12-24T06:01:04.407Z,21.70
2022-12-24T06:03:17.859Z,15.70
2022-12-24T06:05:31.285Z,12.00
2022-12-24T06:07:44.899Z,21.00
2022-12-24T06:09:58.099Z,20.90
2022-12-24T06:12:11.840Z,23.60
2022-12-24T06:14:25.075Z,15.70
2022-12-24T06:16:38.444Z,13.70
2022-12-24T06:18:52.305Z,27.80
2022-12-24T06:21:06.380Z,11.10
2022-12-24T06:23:19.852Z,22.00
2022-12-24T06:25:33.098Z,27.80
2022-12-24T06:27:46.405Z,12.50
2022-12-24T06:30:00.011Z,12.90
2022-12-24T06:32:14.093Z,9.20
2022-12-24T06:34:27.291Z,15.80
2022-12-24T06:36:40.449Z,11.90
2022-12-24T06:38:54.498Z,14.80
2022-12-24T06:41:12.169Z,17.10
2022-12-24T06:43:25.373Z,12.50
2022-12-24T06:45:38.667Z,26.10
2022-12-24T06:47:52.042Z,16.90
2022-12-24T06:50:05.728Z,15.10
2022-12-24T06:52:19.056Z,23.40
2022-12-24T06:54:32.473Z,14.50
2022-12-24T06:56:45.692Z,14.10
2022-12-24T06:59:04.868Z,12.80
2022-12-24T07:01:20.800Z,9.70
2022-12-24T07:03:35.060Z,16.70
2022-12-24T07:05:49.836Z,15.00
2022-12-24T07:08:03.074Z,24.40
2022-12-24T07:10:18.537Z,19.40
2022-12-24T07:12:32.969Z,19.40
2022-12-24T07:14:46.219Z,21.80
2022-12-24T07:16:59.752Z,23.10
2022-12-24T07:19:13.274Z,24.50
2022-12-24T07:21:26.602Z,30.90
2022-12-24T07:23:40.151Z,15.10
2022-12-24T07:25:53.515Z,21.30
2022-12-24T07:28:06.857Z,32.50
2022-12-24T07:30:20.834Z,30.40
2022-12-24T07:32:34.076Z,22.70
2022-12-24T07:34:47.344Z,22.70
2022-12-24T07:37:00.510Z,25.80
2022-12-24T07:39:13.852Z,23.20
2022-12-24T07:41:27.377Z,16.10
2022-12-24T07:43:40.719Z,17.60
2022-12-24T07:45:54.164Z,19.70
2022-12-24T07:48:07.799Z,21.10
2022-12-24T07:50:21.226Z,22.60
2022-12-24T07:52:34.484Z,28.50
2022-12-24T07:54:47.791Z,20.50
2022-12-24T07:57:01.046Z,26.60
2022-12-24T07:59:15.988Z,20.00
2022-12-24T08:01:29.576Z,25.20
2022-12-24T08:03:43.414Z,29.20
2022-12-24T08:05:56.886Z,20.20
2022-12-24T08:08:10.413Z,27.30
2022-12-24T08:10:23.843Z,20.90
2022-12-24T08:12:37.095Z,13.70
2022-12-24T08:14:50.386Z,13.20
2022-12-24T08:17:03.798Z,28.00
2022-12-24T08:19:17.130Z,24.90
2022-12-24T08:21:30.587Z,21.10
2022-12-24T08:23:44.148Z,28.40
2022-12-24T08:25:57.631Z,16.80
2022-12-24T08:28:11.121Z,18.60
2022-12-24T08:30:24.677Z,23.50
2022-12-24T08:32:37.957Z,22.70
2022-12-24T08:34:51.256Z,13.50
2022-12-24T08:37:04.694Z,16.60
2022-12-24T08:39:17.974Z,15.90
2022-12-24T08:41:31.288Z,20.10
2022-12-24T08:43:44.613Z,31.10
2022-12-24T08:45:58.014Z,22.90
2022-12-24T08:48:12.280Z,39.80
2022-12-24T08:50:25.563Z,41.60
2022-12-24T08:52:38.847Z,34.80
2022-12-24T08:54:52.114Z,36.00
2022-12-24T08:57:05.453Z,43.50
2022-12-24T08:59:19.295Z,34.00
2022-12-24T09:01:33.325Z,48.90
2022-12-24T09:03:47.195Z,38.40
2022-12-24T09:06:00.421Z,31.20
2022-12-24T09:08:13.742Z,33.10
2022-12-24T09:10:27.699Z,40.40
2022-12-24T09:12:40.933Z,26.30
2022-12-24T09:15:01.406Z,44.00
2022-12-24T09:17:16.948Z,24.90
2022-12-24T09:19:30.622Z,49.00
2022-12-24T09:21:43.904Z,33.00
2022-12-24T09:23:57.185Z,22.80
2022-12-24T09:26:13.753Z,25.20
2022-12-24T09:28:27.519Z,40.80
2022-12-24T09:30:41.144Z,23.50
2022-12-24T09:32:54.473Z,29.00
2022-12-24T09:35:09.029Z,25.10
2022-12-24T09:37:22.362Z,32.30
2022-12-24T09:39:35.679Z,30.90
2022-12-24T09:42:00.273Z,36.00
2022-12-24T09:44:24.144Z,26.00
2022-12-24T09:46:43.426Z,34.00
2022-12-24T09:49:01.131Z,28.90
2022-12-24T09:51:15.876Z,27.00
2022-12-24T09:53:37.820Z,27.20
2022-12-24T09:55:55.740Z,39.70
2022-12-24T09:58:19.643Z,19.50
2022-12-24T10:00:36.949Z,24.30
2022-12-24T10:02:50.319Z,25.90
2022-12-24T10:05:03.901Z,26.00
2022-12-24T10:07:33.165Z,21.60
2022-12-24T10:09:53.241Z,20.20
2022-12-24T10:12:12.739Z,31.90
2022-12-24T10:14:50.490Z,20.80
2022-12-24T10:17:14.749Z,39.00
2022-12-24T10:19:37.283Z,33.30
2022-12-24T10:22:09.277Z,30.50
2022-12-24T10:24:26.972Z,24.30
2022-12-24T10:26:47.548Z,30.10
2022-12-24T10:29:05.085Z,26.90
2022-12-24T10:31:18.859Z,37.80
2022-12-24T10:33:40.985Z,21.90
2022-12-24T10:35:58.521Z,20.50
2022-12-24T10:38:12.116Z,29.60
2022-12-24T10:40:36.295Z,30.80
2022-12-24T10:42:51.618Z,24.20
2022-12-24T10:45:10.873Z,35.80
2022-12-24T10:47:24.522Z,40.50
2022-12-24T10:49:45.919Z,27.20
2022-12-24T10:52:01.096Z,37.10
2022-12-24T10:54:22.765Z,34.40
2022-12-24T10:56:46.860Z,27.90
2022-12-24T10:59:00.696Z,22.90
2022-12-24T11:01:14.375Z,32.80
2022-12-24T11:03:36.998Z,31.30
2022-12-24T11:08:06.366Z,30.30
2022-12-24T11:10:30.111Z,16.40
2022-12-24T11:13:12.885Z,34.10
2022-12-24T11:15:27.354Z,25.70
2022-12-24T11:17:40.875Z,36.50
2022-12-24T11:19:56.169Z,25.60
2022-12-24T11:22:11.501Z,26.30
2022-12-24T11:24:33.656Z,27.00
2022-12-24T11:26:48.736Z,39.10
2022-12-24T11:29:23.534Z,26.10
2022-12-24T11:31:39.581Z,26.70
2022-12-24T11:33:56.884Z,23.70
2022-12-24T11:36:15.714Z,38.70
2022-12-24T11:38:31.510Z,24.80
2022-12-24T11:40:47.863Z,29.20
2022-12-24T11:43:11.065Z,20.90
2022-12-24T11:45:32.023Z,24.10
2022-12-24T11:47:47.345Z,38.80
2022-12-24T11:50:20.518Z,19.40
2022-12-24T11:52:36.965Z,9.30
2022-12-24T11:55:08.948Z,15.90
2022-12-24T11:57:30.365Z,10.30
2022-12-24T11:59:47.606Z,26.00
2022-12-24T12:02:07.120Z,20.70
2022-12-24T12:04:24.287Z,11.80
2022-12-24T12:06:43.445Z,19.50
2022-12-24T12:08:59.272Z,24.20
2022-12-24T12:11:17.273Z,25.60
2022-12-24T12:13:36.220Z,26.80
2022-12-24T12:15:54.630Z,17.00
2022-12-24T12:18:15.716Z,18.50
2022-12-24T12:20:34.429Z,18.60
2022-12-24T12:22:56.877Z,11.40
2022-12-24T12:27:30.844Z,16.40
2022-12-24T12:29:53.406Z,9.10
2022-12-24T12:32:12.669Z,7.20
2022-12-24T12:34:32.998Z,5.90
2022-12-24T12:36:50.253Z,7.40
2022-12-24T12:39:03.762Z,8.30
2022-12-24T12:41:34.984Z,6.30
2022-12-24T12:44:08.181Z,6.50
2022-12-24T12:46:31.956Z,8.90
2022-12-24T12:49:08.272Z,10.10
2022-12-24T12:51:29.728Z,13.70
2022-12-24T12:53:57.652Z,18.70
2022-12-24T12:56:20.456Z,14.40
2022-12-24T12:58:39.721Z,13.70
2022-12-24T13:00:56.392Z,20.30
2022-12-24T13:03:40.961Z,10.70
2022-12-24T13:06:14.327Z,14.20
2022-12-24T13:08:58.197Z,38.80
2022-12-24T13:11:31.419Z,19.50
2022-12-24T13:14:05.105Z,7.80
2022-12-24T13:16:38.565Z,15.00
2022-12-24T13:19:01.711Z,17.00
2022-12-24T13:21:23.885Z,18.30
2022-12-24T13:23:37.501Z,31.20
2022-12-24T13:25:52.880Z,32.10
2022-12-24T13:28:35.379Z,16.50
2022-12-24T13:30:48.692Z,24.30
2022-12-24T13:33:01.924Z,7.50
2022-12-24T13:35:38.055Z,8.00
2022-12-24T13:37:52.965Z,6.90
2022-12-24T13:40:26.219Z,10.00
2022-12-24T13:43:10.307Z,25.70
2022-12-24T13:45:50.396Z,10.80
2022-12-24T13:48:05.389Z,17.40
2022-12-24T13:50:27.690Z,17.10
2022-12-24T13:52:42.887Z,17.90
2022-12-24T13:55:11.864Z,26.20
2022-12-24T13:57:43.349Z,28.40
2022-12-24T14:00:05.293Z,31.70
2022-12-24T14:02:27.485Z,29.60
2022-12-24T14:04:43.473Z,33.70
2022-12-24T14:07:00.401Z,22.60
2022-12-24T14:09:17.682Z,24.20
2022-12-24T14:11:37.894Z,28.10
2022-12-24T14:14:16.575Z,23.50
2022-12-24T14:16:32.404Z,20.70
2022-12-24T14:18:47.945Z,31.80
2022-12-24T14:21:03.759Z,21.50
2022-12-24T14:23:31.275Z,30.90
2022-12-24T14:25:45.219Z,41.70
2022-12-24T14:28:02.468Z,57.80
2022-12-24T14:30:28.969Z,56.90
2022-12-24T14:32:44.194Z,64.30
2022-12-24T14:35:19.686Z,34.00
2022-12-24T14:37:35.669Z,51.40
2022-12-24T14:39:58.026Z,48.10
2022-12-24T14:42:30.186Z,50.50
2022-12-24T14:44:53.981Z,62.10
2022-12-24T14:47:19.877Z,62.00
2022-12-24T14:49:47.699Z,53.50
2022-12-24T14:52:30.567Z,55.70
2022-12-24T14:54:45.450Z,25.60
2022-12-24T14:57:29.673Z,12.80
2022-12-24T14:59:48.192Z,16.50
2022-12-24T15:02:02.126Z,16.10
2022-12-24T15:04:21.957Z,9.20
2022-12-24T15:06:39.180Z,6.10
2022-12-24T15:08:54.031Z,11.80
2022-12-24T15:11:12.585Z,8.90
2022-12-24T15:13:35.219Z,6.60
2022-12-24T15:15:53.457Z,4.50
2022-12-24T15:18:08.723Z,2.50
2022-12-24T15:20:25.415Z,3.00
2022-12-24T15:22:38.720Z,11.30
2022-12-24T15:24:53.113Z,6.00
2022-12-24T15:27:17.056Z,5.30
2022-12-24T15:29:32.019Z,5.00
2022-12-24T15:31:45.389Z,3.10
2022-12-24T15:34:00.375Z,6.10
2022-12-24T15:36:17.283Z,4.30
2022-12-24T15:38:38.963Z,11.30
2022-12-24T15:40:56.535Z,10.20
2022-12-24T15:43:12.856Z,5.20
2022-12-24T15:45:30.046Z,2.10
2022-12-24T15:47:52.776Z,12.30
2022-12-24T15:50:06.103Z,8.40
2022-12-24T15:52:21.459Z,6.60
2022-12-24T15:54:35.342Z,17.10
2022-12-24T15:56:49.803Z,3.60
2022-12-24T15:59:24.840Z,10.90
2022-12-24T16:01:39.746Z,14.70
2022-12-24T16:04:03.593Z,13.50
2022-12-24T16:06:17.615Z,7.50
2022-12-24T16:08:34.621Z,3.40
2022-12-24T16:10:50.643Z,17.60
2022-12-24T16:13:04.099Z,7.70
2022-12-24T16:15:21.518Z,23.00
2022-12-24T16:17:38.238Z,69.20
2022-12-24T16:19:55.113Z,26.60
2022-12-24T16:22:21.835Z,27.90
2022-12-24T16:24:35.570Z,50.10
2022-12-24T16:26:49.341Z,45.70
2022-12-24T16:29:03.682Z,33.10
2022-12-24T16:31:31.772Z,40.20
2022-12-24T16:33:45.821Z,39.00
2022-12-24T16:35:59.529Z,33.30
2022-12-24T16:38:13.085Z,29.20
2022-12-24T16:40:28.035Z,24.80
2022-12-24T16:43:01.020Z,19.50
2022-12-24T16:45:15.649Z,28.60
2022-12-24T16:47:35.769Z,21.80
2022-12-24T16:49:52.215Z,17.90
2022-12-24T16:52:05.806Z,17.80
2022-12-24T16:54:20.272Z,23.70
2022-12-24T16:56:34.123Z,29.60
2022-12-24T16:58:47.491Z,22.50
2022-12-24T17:01:00.961Z,34.50
2022-12-24T17:03:14.905Z,20.50
2022-12-24T17:05:28.243Z,52.40
2022-12-24T17:07:43.975Z,50.70
2022-12-24T17:09:58.107Z,43.40
2022-12-24T17:12:11.958Z,57.40
2022-12-24T17:14:25.434Z,59.40
2022-12-24T17:16:39.303Z,58.80
2022-12-24T17:18:53.344Z,59.10
2022-12-24T17:21:08.120Z,41.80
2022-12-24T17:23:21.503Z,68.30
2022-12-24T17:25:34.887Z,60.00
2022-12-24T17:27:48.864Z,59.60
2022-12-24T17:30:02.325Z,60.70
2022-12-24T17:32:15.546Z,47.80
2022-12-24T17:34:28.968Z,43.80
2022-12-24T17:36:42.371Z,38.70
2022-12-24T17:38:55.552Z,37.50
2022-12-24T17:41:10.652Z,32.30
2022-12-24T17:43:23.855Z,31.80
2022-12-24T17:45:37.783Z,40.50
2022-12-24T17:47:51.723Z,46.50
2022-12-24T17:50:05.052Z,33.00
2022-12-24T17:52:18.412Z,50.90
2022-12-24T17:54:31.727Z,45.40
2022-12-24T17:56:45.088Z,49.10
2022-12-24T17:58:58.799Z,41.80
2022-12-24T18:01:13.694Z,25.00
2022-12-24T18:03:27.385Z,33.50
2022-12-24T18:05:42.108Z,49.50
2022-12-24T18:07:55.430Z,56.30
2022-12-24T18:10:09.200Z,37.20
2022-12-24T18:12:22.391Z,28.20
2022-12-24T18:14:35.704Z,54.10
2022-12-24T18:16:51.565Z,44.10
2022-12-24T18:19:07.625Z,31.80
2022-12-24T18:21:21.504Z,39.10
2022-12-24T18:23:34.844Z,26.20
2022-12-24T18:25:48.190Z,33.30
2022-12-24T18:28:01.592Z,32.90
2022-12-24T18:30:22.995Z,60.20
2022-12-24T18:32:41.407Z,34.10
2022-12-24T18:34:56.737Z,30.20
2022-12-24T18:37:09.909Z,29.90
2022-12-24T18:39:23.691Z,25.10
2022-12-24T18:41:37.260Z,52.60
2022-12-24T18:43:50.575Z,38.80
2022-12-24T18:46:04.027Z,30.70
2022-12-24T18:48:17.432Z,45.60
2022-12-24T18:50:30.741Z,28.40
2022-12-24T18:52:44.051Z,44.60
2022-12-24T18:54:57.317Z,45.50
2022-12-24T18:57:10.900Z,36.90
2022-12-24T18:59:24.207Z,17.70
2022-12-24T19:01:38.596Z,9.50
2022-12-24T19:03:52.557Z,6.30
2022-12-24T19:06:09.395Z,9.50
2022-12-24T19:08:55.816Z,24.00
2022-12-24T19:10:59.170Z,28.50
2022-12-24T19:13:12.356Z,50.70
2022-12-24T19:15:29.375Z,33.70
2022-12-24T19:17:45.645Z,47.80
2022-12-24T19:19:59.025Z,28.50
2022-12-24T19:22:13.521Z,29.30
2022-12-24T19:24:26.718Z,23.50
2022-12-24T19:26:40.179Z,8.80
2022-12-24T19:28:54.132Z,20.00
2022-12-24T19:31:12.084Z,31.60
2022-12-24T19:33:26.285Z,19.30
2022-12-24T19:35:39.652Z,23.40
2022-12-24T19:37:53.494Z,27.50
2022-12-24T19:40:06.934Z,21.00
2022-12-24T19:42:20.194Z,24.20
2022-12-24T19:44:33.734Z,20.20
2022-12-24T19:46:46.798Z,39.80
2022-12-24T19:49:01.857Z,43.20
2022-12-24T19:51:16.565Z,31.80
2022-12-24T19:53:30.063Z,29.40
2022-12-24T19:55:48.086Z,40.60
2022-12-24T19:58:01.415Z,40.10
2022-12-24T20:00:16.567Z,38.30
2022-12-24T20:02:30.803Z,49.70
2022-12-24T20:04:44.379Z,43.70
2022-12-24T20:07:00.530Z,38.20
2022-12-24T20:09:14.581Z,31.10
2022-12-24T20:11:27.968Z,37.80
2022-12-24T20:13:42.153Z,29.90
2022-12-24T20:15:55.583Z,42.80
2022-12-24T20:18:09.362Z,56.10
2022-12-24T20:20:22.902Z,56.70
2022-12-24T20:22:36.945Z,36.00
2022-12-24T20:24:50.815Z,56.50
2022-12-24T20:27:04.301Z,70.00
2022-12-24T20:29:18.174Z,61.70
2022-12-24T20:31:33.077Z,52.50
2022-12-24T20:33:47.304Z,64.60
2022-12-24T20:36:04.199Z,53.50
2022-12-24T20:38:17.542Z,60.70
2022-12-24T20:40:30.960Z,52.50
2022-12-24T20:42:44.844Z,73.60
2022-12-24T20:44:58.522Z,53.70
2022-12-24T20:47:11.912Z,39.60
2022-12-24T20:49:25.222Z,49.90
2022-12-24T20:51:38.444Z,45.30
2022-12-24T20:53:51.735Z,44.60
2022-12-24T20:56:05.200Z,58.50
2022-12-24T20:58:19.350Z,57.60
2022-12-24T21:00:32.631Z,39.00
2022-12-24T21:02:46.135Z,58.60
2022-12-24T21:05:02.447Z,49.70
2022-12-24T21:07:16.481Z,60.80
2022-12-24T21:09:29.802Z,54.60
2022-12-24T21:11:59.719Z,78.20
2022-12-24T21:14:13.614Z,52.10
2022-12-24T21:16:26.815Z,55.20
2022-12-24T21:18:39.953Z,75.50
2022-12-24T21:20:53.283Z,66.50
2022-12-24T21:23:06.812Z,62.10
2022-12-24T21:25:20.481Z,49.40
2022-12-24T21:27:35.202Z,62.70
2022-12-24T21:29:48.470Z,66.10
2022-12-24T21:32:01.737Z,57.90
2022-12-24T21:34:16.054Z,62.00
2022-12-24T21:36:31.655Z,55.70
2022-12-24T21:38:46.304Z,47.90
2022-12-24T21:41:06.861Z,49.30
2022-12-24T21:43:21.021Z,43.90
2022-12-24T21:45:34.511Z,32.60
2022-12-24T21:47:47.929Z,44.70
2022-12-24T21:50:17.711Z,55.40
2022-12-24T21:52:31.089Z,62.00
2022-12-24T21:54:44.337Z,71.00
2022-12-24T21:57:16.253Z,71.70
2022-12-24T21:59:30.203Z,76.70
2022-12-24T22:01:43.645Z,71.10
2022-12-24T22:03:56.984Z,76.60
2022-12-24T22:06:33.415Z,77.30
2022-12-24T22:09:03.822Z,81.70
2022-12-24T22:11:34.827Z,70.50
2022-12-24T22:13:48.222Z,59.50
2022-12-24T22:16:01.635Z,66.60
2022-12-24T22:18:15.791Z,51.20
2022-12-24T22:20:29.435Z,52.40
2022-12-24T22:22:43.749Z,55.50
2022-12-24T22:24:57.118Z,50.90
2022-12-24T22:27:10.401Z,56.10
2022-12-24T22:29:23.667Z,41.00
2022-12-24T22:31:36.988Z,42.90
2022-12-24T22:33:50.688Z,54.80
2022-12-24T22:36:07.776Z,49.30
2022-12-24T22:38:21.508Z,71.10
2022-12-24T22:40:35.730Z,80.40
2022-12-24T22:42:49.012Z,78.20
2022-12-24T22:45:02.311Z,62.80
2022-12-24T22:47:15.744Z,72.80
2022-12-24T22:49:29.423Z,46.30
2022-12-24T22:51:43.638Z,54.50
2022-12-24T22:53:58.188Z,72.90
2022-12-24T22:56:13.502Z,58.80
2022-12-24T22:58:26.967Z,66.80
2022-12-24T23:00:46.691Z,67.00
2022-12-24T23:03:00.329Z,50.50
2022-12-24T23:05:17.516Z,73.10
2022-12-24T23:07:30.785Z,66.00
2022-12-24T23:09:44.248Z,49.90
2022-12-24T23:11:57.505Z,71.00
2022-12-24T23:14:27.111Z,42.70
2022-12-24T23:16:40.911Z,54.10
2022-12-24T23:18:54.185Z,41.90
2022-12-24T23:21:10.872Z,56.30
2022-12-24T23:23:24.142Z,65.50
2022-12-24T23:25:37.593Z,71.30
2022-12-24T23:27:51.560Z,67.80
2022-12-24T23:30:05.076Z,47.60
2022-12-24T23:32:18.298Z,49.80
2022-12-24T23:34:32.629Z,59.10
2022-12-24T23:36:46.050Z,50.80
2022-12-24T23:39:01.381Z,57.90
2022-12-24T23:41:15.987Z,62.90
2022-12-24T23:43:29.653Z,63.90
2022-12-24T23:45:43.120Z,61.50
2022-12-24T23:47:56.509Z,71.30
2022-12-24T23:50:13.927Z,72.00
2022-12-24T23:52:27.524Z,59.30
2022-12-24T23:54:40.853Z,54.30
2022-12-24T23:56:54.100Z,55.60
2022-12-24T23:59:08.102Z,78.50
